createdAt,value
2018-12-12T00:00:02.719Z,2.8
2018-12-12T00:05:02.840Z,2.7
2018-12-12T00:10:02.450Z,2.7
2018-12-12T00:15:02.510Z,2.7
2018-12-12T00:20:02.600Z,2.7
2018-12-12T00:25:02.706Z,2.7
2018-12-12T00:30:02.871Z,2.7
2018-12-12T00:35:02.858Z,2.7
2018-12-12T00:40:02.391Z,2.7
2018-12-12T00:45:02.526Z,2.7
2018-12-12T00:50:02.556Z,2.7
2018-12-12T00:55:02.698Z,2.7
2018-12-12T01:00:02.831Z,2.7
2018-12-12T01:05:02.841Z,2.7
2018-12-12T01:10:02.419Z,2.7
2018-12-12T01:15:02.495Z,2.7
2018-12-12T01:20:02.564Z,2.7
2018-12-12T01:25:02.700Z,2.8
2018-12-12T01:30:02.863Z,2.8
2018-12-12T01:35:02.880Z,2.8
2018-12-12T01:40:02.444Z,2.9
2018-12-12T01:45:02.634Z,2.9
2018-12-12T01:50:02.762Z,2.9
2018-12-12T01:55:02.728Z,2.9
2018-12-12T02:00:02.859Z,2.9
2018-12-12T02:05:02.872Z,2.9
2018-12-12T02:10:02.444Z,2.9
2018-12-12T02:15:02.549Z,2.9
2018-12-12T02:20:02.747Z,2.9
2018-12-12T02:25:02.735Z,2.9
2018-12-12T02:30:02.913Z,2.9
2018-12-12T02:35:03.071Z,2.9
2018-12-12T02:40:02.589Z,2.9
2018-12-12T02:45:02.682Z,2.9
2018-12-12T02:50:02.837Z,3
2018-12-12T02:55:05.319Z,3
2018-12-12T03:00:02.412Z,3
2018-12-12T03:05:02.507Z,3.1
2018-12-12T03:10:03.087Z,3.1
2018-12-12T03:15:08.320Z,3.1
2018-12-12T03:20:02.517Z,3.1
2018-12-12T03:25:05.155Z,3.1
2018-12-12T03:30:03.355Z,3.1
2018-12-12T03:35:02.487Z,3.1
2018-12-12T03:40:03.110Z,3.1
2018-12-12T03:45:03.236Z,3.2
2018-12-12T03:50:02.419Z,3.2
2018-12-12T03:55:02.589Z,3.2
2018-12-12T04:00:02.827Z,3.2
2018-12-12T04:05:02.843Z,3.2
2018-12-12T04:10:02.416Z,3.2
2018-12-12T04:15:02.508Z,3.2
2018-12-12T04:20:02.690Z,3.3
2018-12-12T04:25:02.761Z,3.3
2018-12-12T04:30:02.857Z,3.3
2018-12-12T04:35:02.911Z,3.3
2018-12-12T04:40:02.446Z,3.3
2018-12-12T04:45:02.611Z,3.3
2018-12-12T04:50:02.762Z,3.3
2018-12-12T04:55:02.731Z,3.3
2018-12-12T05:00:02.875Z,3.3
2018-12-12T05:05:02.926Z,3.3
2018-12-12T05:10:02.471Z,3.3
2018-12-12T05:15:02.578Z,3.3
2018-12-12T05:20:02.742Z,3.3
2018-12-12T05:25:02.758Z,3.2
2018-12-12T05:30:02.863Z,3.1
2018-12-12T05:35:02.874Z,3
2018-12-12T05:40:02.424Z,3
2018-12-12T05:45:02.568Z,2.9
2018-12-12T05:50:02.719Z,3
2018-12-12T05:55:02.737Z,3
2018-12-12T06:00:02.886Z,3.1
2018-12-12T06:05:03.029Z,3.1
2018-12-12T06:10:02.488Z,3.1
2018-12-12T06:15:05.115Z,3.1
2018-12-12T06:20:03.254Z,3
2018-12-12T06:25:04.941Z,3
2018-12-12T06:30:02.336Z,3
2018-12-12T06:35:02.474Z,3
2018-12-12T06:40:02.829Z,3
2018-12-12T06:45:02.923Z,3
2018-12-12T06:50:02.394Z,2.9
2018-12-12T06:55:02.388Z,2.9
2018-12-12T07:00:02.525Z,2.9
2018-12-12T07:05:02.571Z,2.9
2018-12-12T07:10:03.159Z,2.9
2018-12-12T07:15:03.272Z,2.9
2018-12-12T07:20:02.434Z,2.8
2018-12-12T07:25:02.599Z,2.9
2018-12-12T07:30:02.669Z,2.9
2018-12-12T07:35:02.859Z,2.8
2018-12-12T07:40:02.416Z,2.8
2018-12-12T07:45:02.520Z,2.8
2018-12-12T07:50:05.097Z,2.8
2018-12-12T07:55:02.700Z,2.8
2018-12-12T08:00:02.871Z,2.8
2018-12-12T08:05:02.894Z,2.8
2018-12-12T08:10:05.131Z,2.8
2018-12-12T08:15:05.154Z,2.8
2018-12-12T08:20:03.293Z,2.8
2018-12-12T08:25:02.345Z,2.9
2018-12-12T08:30:02.501Z,2.9
2018-12-12T08:35:02.608Z,2.9
2018-12-12T08:40:03.353Z,2.9
2018-12-12T08:45:02.443Z,2.9
2018-12-12T08:50:02.507Z,3
2018-12-12T08:55:02.609Z,3
2018-12-12T09:00:05.201Z,3.1
2018-12-12T09:05:02.790Z,3.1
2018-12-12T09:10:04.919Z,3.2
2018-12-12T09:15:02.575Z,3.1
2018-12-12T09:20:02.769Z,3.2
2018-12-12T09:25:02.753Z,3.2
2018-12-12T09:30:02.865Z,3.3
2018-12-12T09:35:02.929Z,3.3
2018-12-12T09:40:02.463Z,3.3
2018-12-12T09:45:02.524Z,3.4
2018-12-12T09:50:02.678Z,3.4
2018-12-12T09:55:02.748Z,3.5
2018-12-12T10:00:02.865Z,3.5
2018-12-12T10:05:02.894Z,3.5
2018-12-12T10:10:02.427Z,3.6
2018-12-12T10:15:02.532Z,3.6
2018-12-12T10:20:05.181Z,3.7
2018-12-12T10:25:02.727Z,3.7
2018-12-12T10:30:02.887Z,3.9
2018-12-12T10:35:03.073Z,3.9
2018-12-12T10:40:02.627Z,4
2018-12-12T10:45:02.807Z,4
2018-12-12T10:50:02.830Z,4
2018-12-12T10:55:03.044Z,4.1
2018-12-12T11:00:05.626Z,4.2
2018-12-12T11:05:03.217Z,4.1
2018-12-12T11:10:02.760Z,4.2
2018-12-12T11:15:02.944Z,4.2
2018-12-12T11:20:08.235Z,4.3
2018-12-12T11:25:02.314Z,4.3
2018-12-12T11:30:02.369Z,4.4
2018-12-12T11:35:02.486Z,4.4
2018-12-12T11:40:03.111Z,4.3
2018-12-12T11:45:03.236Z,4.4
2018-12-12T11:50:02.393Z,4.4
2018-12-12T11:55:02.421Z,4.5
2018-12-12T12:00:02.561Z,4.5
2018-12-12T12:05:07.805Z,4.5
2018-12-12T12:10:02.424Z,4.5
2018-12-12T12:15:02.599Z,4.5
2018-12-12T12:20:02.796Z,4.5
2018-12-12T12:25:02.831Z,4.5
2018-12-12T12:30:02.919Z,4.5
2018-12-12T12:35:03.102Z,4.4
2018-12-12T12:40:02.719Z,4.4
2018-12-12T12:45:02.891Z,4.4
2018-12-12T12:50:05.515Z,4.3
2018-12-12T12:55:03.047Z,4.3
2018-12-12T13:00:03.155Z,4.3
2018-12-12T13:05:03.229Z,4.4
2018-12-12T13:10:02.785Z,4.5
2018-12-12T13:15:03.065Z,4.5
2018-12-12T13:20:03.257Z,4.4
2018-12-12T13:25:02.363Z,4.3
2018-12-12T13:30:02.393Z,4.3
2018-12-12T13:35:03.105Z,4.3
2018-12-12T13:40:02.713Z,4.3
2018-12-12T13:45:02.892Z,4.4
2018-12-12T13:50:02.973Z,4.3
2018-12-12T13:55:03.082Z,4.3
2018-12-12T14:00:03.235Z,4.2
2018-12-12T14:05:02.405Z,4.2
2018-12-12T14:10:03.052Z,4.1
2018-12-12T14:15:03.068Z,4
2018-12-12T14:20:03.239Z,3.9
2018-12-12T14:25:02.358Z,3.9
2018-12-12T14:30:02.384Z,3.9
2018-12-12T14:35:02.503Z,3.9
2018-12-12T14:40:03.052Z,3.9
2018-12-12T14:45:03.230Z,3.9
2018-12-12T14:50:02.414Z,3.8
2018-12-12T14:55:02.565Z,3.8
2018-12-12T15:00:02.658Z,3.8
2018-12-12T15:05:02.825Z,3.8
2018-12-12T15:10:02.441Z,3.7
2018-12-12T15:15:05.069Z,3.6
2018-12-12T15:20:03.251Z,3.6
2018-12-12T15:25:02.439Z,3.5
2018-12-12T15:30:02.542Z,3.4
2018-12-12T15:35:02.570Z,3.3
2018-12-12T15:40:03.124Z,3.3
2018-12-12T15:45:03.263Z,3.3
2018-12-12T15:50:02.380Z,3.2
2018-12-12T15:55:02.557Z,3.2
2018-12-12T16:00:02.653Z,3.2
2018-12-12T16:05:02.797Z,3.2
2018-12-12T16:10:02.467Z,3.1
2018-12-12T16:15:02.565Z,3.1
2018-12-12T16:20:02.752Z,3.1
2018-12-12T16:25:02.747Z,3.1
2018-12-12T16:30:02.887Z,3.1
2018-12-12T16:35:03.060Z,3.1
2018-12-12T16:40:02.632Z,3.1
2018-12-12T16:45:05.205Z,3.1
2018-12-12T16:50:02.357Z,3.1
2018-12-12T16:55:02.391Z,3.1
2018-12-12T17:00:05.056Z,3.1
2018-12-12T17:05:02.682Z,3.1
2018-12-12T17:10:03.353Z,3.1
2018-12-12T17:15:02.362Z,3.1
2018-12-12T17:20:02.510Z,3.1
2018-12-12T17:25:02.640Z,3.1
2018-12-12T17:30:02.720Z,3.1
2018-12-12T17:35:08.651Z,3.1
2018-12-12T17:40:05.140Z,3.1
2018-12-12T17:45:02.684Z,3.1
2018-12-12T17:50:02.810Z,3.1
2018-12-12T17:55:02.790Z,3.1
2018-12-12T18:00:02.908Z,3
2018-12-12T18:05:02.920Z,3
2018-12-12T18:10:02.616Z,3
2018-12-12T18:15:05.178Z,3
2018-12-12T18:20:02.366Z,3
2018-12-12T18:25:02.438Z,2.9
2018-12-12T18:30:02.539Z,2.9
2018-12-12T18:35:02.593Z,2.9
2018-12-12T18:40:03.191Z,2.8
2018-12-12T18:45:02.282Z,2.8
2018-12-12T18:50:02.427Z,2.7
2018-12-12T18:55:02.597Z,2.6
2018-12-12T19:00:02.654Z,2.6
2018-12-12T19:05:02.809Z,2.6
2018-12-12T19:10:02.441Z,2.6
2018-12-12T19:15:02.623Z,2.6
2018-12-12T19:20:02.804Z,2.6
2018-12-12T19:25:02.964Z,2.6
2018-12-12T19:30:03.020Z,2.6
2018-12-12T19:35:05.712Z,2.6
2018-12-12T19:40:02.357Z,2.6
2018-12-12T19:45:02.539Z,2.6
2018-12-12T19:50:05.319Z,2.6
2018-12-12T19:55:02.750Z,2.6
2018-12-12T20:00:03.035Z,2.6
2018-12-12T20:05:02.610Z,2.6
2018-12-12T20:10:07.846Z,2.6
2018-12-12T20:15:02.501Z,2.6
2018-12-12T20:20:03.187Z,2.6
2018-12-12T20:25:03.284Z,2.5
2018-12-12T20:30:07.391Z,2.5
2018-12-12T20:35:02.445Z,2.5
2018-12-12T20:40:03.038Z,2.5
2018-12-12T20:45:03.047Z,2.5
2018-12-12T20:50:03.159Z,2.5
2018-12-12T20:55:03.156Z,2.5
2018-12-12T21:00:05.797Z,2.5
2018-12-12T21:05:02.407Z,2.5
2018-12-12T21:10:03.032Z,2.5
2018-12-12T21:15:03.042Z,2.5
2018-12-12T21:20:03.241Z,2.5
2018-12-12T21:25:02.460Z,2.5
2018-12-12T21:30:02.602Z,2.5
2018-12-12T21:35:05.282Z,2.6
2018-12-12T21:40:02.987Z,2.6
2018-12-12T21:45:05.564Z,2.6
2018-12-12T21:50:02.734Z,2.6
2018-12-12T21:55:02.751Z,2.6
2018-12-12T22:00:02.888Z,2.6
2018-12-12T22:05:02.925Z,2.6
2018-12-12T22:10:02.483Z,2.6
2018-12-12T22:15:02.598Z,2.6
2018-12-12T22:20:02.798Z,2.6
2018-12-12T22:25:05.476Z,2.6
2018-12-12T22:30:05.187Z,2.6
2018-12-12T22:35:02.775Z,2.6
2018-12-12T22:40:02.389Z,2.6
2018-12-12T22:45:02.498Z,2.6
2018-12-12T22:50:04.897Z,2.6
2018-12-12T22:55:02.443Z,2.6
2018-12-12T23:00:02.513Z,2.6
2018-12-12T23:05:02.574Z,2.6
2018-12-12T23:10:02.442Z,2.6
2018-12-12T23:15:02.589Z,2.6
2018-12-12T23:20:02.809Z,2.6
2018-12-12T23:25:02.670Z,2.5
2018-12-12T23:30:02.725Z,2.5
2018-12-12T23:35:02.851Z,2.5
2018-12-12T23:40:04.991Z,2.5
2018-12-12T23:45:02.532Z,2.5
2018-12-12T23:50:05.113Z,2.5
2018-12-12T23:55:02.657Z,2.5
